Terminal Aerodrome Forecast
Issued by NWS

Home | Current Version | Previous Version | Text Only | Print | Product List | Glossary On
Versions: 1 2 3 4 5 6 7 8 9 10 11 12 13 14
000
FTUS44 KLZK 251700
TAFLIT
TAF
KLIT 251740Z 2518/2618 29014G24KT P6SM BKN050
     FM260200 32010G18KT P6SM SCT060 SCT250
     FM261400 31008KT P6SM SKC=

USA.gov is the U.S. government's official web portal to all federal, state and local government web resources and services.